createdAt,value
2023-04-05T00:01:58.558Z,8.85
2023-04-05T00:04:25.766Z,10.98
2023-04-05T00:06:53.936Z,7.97
2023-04-05T00:09:21.319Z,9.52
2023-04-05T00:11:48.650Z,9.63
2023-04-05T00:14:15.982Z,10.45
2023-04-05T00:16:43.363Z,11.25
2023-04-05T00:19:12.317Z,10.35
2023-04-05T00:21:40.291Z,9.95
2023-04-05T00:24:08.044Z,10.43
2023-04-05T00:26:36.384Z,11.15
2023-04-05T00:29:03.464Z,10.77
2023-04-05T00:31:30.935Z,11.05
2023-04-05T00:33:58.202Z,10.73
2023-04-05T00:36:26.289Z,11.32
2023-04-05T00:38:53.347Z,11.32
2023-04-05T00:41:20.480Z,10.55
2023-04-05T00:43:47.684Z,12.15
2023-04-05T00:46:14.838Z,11.27
2023-04-05T00:48:42.043Z,11.48
2023-04-05T00:51:11.660Z,11.80
2023-04-05T00:53:38.783Z,10.82
2023-04-05T00:56:05.965Z,11.30
2023-04-05T00:58:33.815Z,10.63
2023-04-05T01:01:13.723Z,11.15
2023-04-05T01:03:43.705Z,12.35
2023-04-05T01:06:30.095Z,10.90
2023-04-05T01:09:12.743Z,11.40
2023-04-05T01:11:40.563Z,11.07
2023-04-05T01:14:07.639Z,11.75
2023-04-05T01:16:34.856Z,10.27
2023-04-05T01:19:03.867Z,9.82
2023-04-05T01:21:34.068Z,10.52
2023-04-05T01:24:14.768Z,11.68
2023-04-05T01:26:51.012Z,9.65
2023-04-05T01:29:18.060Z,9.68
2023-04-05T01:31:48.094Z,10.02
2023-04-05T01:34:24.060Z,10.13
2023-04-05T01:36:55.132Z,9.38
2023-04-05T01:39:22.391Z,10.52
2023-04-05T01:41:49.571Z,9.93
2023-04-05T01:44:16.653Z,10.57
2023-04-05T01:46:43.751Z,10.15
2023-04-05T01:49:11.297Z,10.18
2023-04-05T01:51:41.884Z,9.18
2023-04-05T01:54:09.415Z,10.15
2023-04-05T01:56:36.489Z,9.02
2023-04-05T01:59:03.620Z,9.85
2023-04-05T02:01:30.780Z,9.10
2023-04-05T02:03:57.969Z,9.73
2023-04-05T02:06:25.032Z,9.13
2023-04-05T02:08:52.045Z,9.18
2023-04-05T02:11:19.106Z,9.73
2023-04-05T02:13:46.111Z,8.60
2023-04-05T02:16:13.264Z,9.00
2023-04-05T02:18:40.365Z,9.27
2023-04-05T02:21:10.512Z,9.50
2023-04-05T02:23:38.033Z,8.82
2023-04-05T02:26:05.371Z,9.07
2023-04-05T02:28:32.430Z,8.52
2023-04-05T02:30:59.477Z,7.65
2023-04-05T02:33:27.631Z,8.32
2023-04-05T02:35:54.887Z,8.63
2023-04-05T02:38:21.995Z,7.38
2023-04-05T02:40:50.109Z,8.02
2023-04-05T02:43:17.386Z,8.40
2023-04-05T02:45:46.738Z,7.80
2023-04-05T02:48:14.099Z,7.88
2023-04-05T02:50:41.550Z,7.95
2023-04-05T02:53:09.103Z,8.68
2023-04-05T02:55:36.358Z,8.32
2023-04-05T02:58:03.441Z,7.68
2023-04-05T03:00:30.642Z,9.18
2023-04-05T03:02:57.709Z,8.98
2023-04-05T03:05:24.806Z,7.90
2023-04-05T03:07:52.365Z,9.50
2023-04-05T03:10:22.490Z,9.95
2023-04-05T03:12:51.413Z,10.20
2023-04-05T03:15:18.511Z,10.18
2023-04-05T03:17:45.844Z,10.15
2023-04-05T03:20:13.331Z,10.05
2023-04-05T03:22:41.102Z,9.50
2023-04-05T03:25:08.361Z,10.65
2023-04-05T03:27:36.284Z,10.23
2023-04-05T03:30:03.384Z,9.93
2023-04-05T03:32:30.537Z,10.63
2023-04-05T03:34:57.607Z,10.70
2023-04-05T03:37:24.609Z,10.32
2023-04-05T03:39:51.632Z,8.75
2023-04-05T03:42:18.651Z,10.30
2023-04-05T03:44:45.735Z,10.90
2023-04-05T03:47:13.150Z,10.88
2023-04-05T03:49:40.986Z,12.05
2023-04-05T03:52:09.078Z,11.20
2023-04-05T03:54:36.387Z,11.20
2023-04-05T03:57:03.638Z,11.18
2023-04-05T03:59:31.116Z,9.55
2023-04-05T04:01:58.275Z,11.43
2023-04-05T04:04:25.397Z,11.70
2023-04-05T04:06:52.481Z,10.13
2023-04-05T04:09:19.546Z,10.93
2023-04-05T04:11:46.719Z,10.75
2023-04-05T04:14:13.724Z,11.38
2023-04-05T04:16:40.780Z,11.73
2023-04-05T04:19:07.907Z,12.73
2023-04-05T04:21:35.830Z,12.60
2023-04-05T04:24:02.915Z,12.52
2023-04-05T04:26:30.000Z,11.98
2023-04-05T04:28:57.255Z,11.75
2023-04-05T04:31:24.722Z,12.40
2023-04-05T04:33:51.858Z,12.13
2023-04-05T04:36:26.525Z,11.90
2023-04-05T04:38:54.624Z,12.82
2023-04-05T04:41:22.585Z,12.30
2023-04-05T04:43:49.629Z,12.82
2023-04-05T04:46:19.011Z,12.65
2023-04-05T04:48:47.323Z,12.65
2023-04-05T04:51:14.466Z,12.20
2023-04-05T04:53:41.683Z,12.27
2023-04-05T04:56:09.126Z,12.10
2023-04-05T04:58:36.339Z,10.95
2023-04-05T05:01:09.156Z,11.32
2023-04-05T05:03:39.849Z,11.20
2023-04-05T05:06:07.467Z,11.68
2023-04-05T05:08:35.199Z,11.02
2023-04-05T05:11:02.685Z,10.88
2023-04-05T05:13:29.909Z,10.60
2023-04-05T05:15:57.978Z,10.27
2023-04-05T05:18:25.189Z,9.68
2023-04-05T05:20:52.657Z,10.48
2023-04-05T05:23:21.169Z,10.25
2023-04-05T05:25:48.098Z,9.65
2023-04-05T05:28:14.763Z,9.25
2023-04-05T05:30:41.600Z,9.20
2023-04-05T05:33:08.406Z,8.52
2023-04-05T05:35:35.327Z,8.98
2023-04-05T05:38:02.721Z,9.85
2023-04-05T05:40:29.363Z,7.70
2023-04-05T05:42:56.147Z,7.90
2023-04-05T05:45:22.739Z,8.43
2023-04-05T05:47:49.358Z,7.50
2023-04-05T05:50:17.122Z,7.57
2023-04-05T05:52:43.768Z,7.32
2023-04-05T05:55:10.503Z,7.78
2023-04-05T05:57:38.732Z,7.72
2023-04-05T06:00:09.485Z,8.18
2023-04-05T06:02:36.536Z,7.55
2023-04-05T06:05:03.974Z,7.82
2023-04-05T06:07:30.609Z,7.53
2023-04-05T06:09:57.261Z,7.88
2023-04-05T06:12:23.879Z,7.88
2023-04-05T06:14:50.595Z,7.97
2023-04-05T06:17:17.228Z,7.30
2023-04-05T06:19:43.868Z,7.90
2023-04-05T06:22:10.576Z,7.78
2023-04-05T06:24:37.175Z,6.68
2023-04-05T06:27:03.889Z,7.70
2023-04-05T06:29:31.176Z,7.38
2023-04-05T06:31:58.104Z,7.32
2023-04-05T06:34:24.839Z,7.40
2023-04-05T06:36:51.586Z,8.38
2023-04-05T06:39:18.851Z,7.38
2023-04-05T06:41:45.539Z,7.05
2023-04-05T06:44:12.170Z,7.53
2023-04-05T06:46:38.849Z,8.20
2023-04-05T06:49:05.921Z,7.35
2023-04-05T06:51:32.646Z,7.45
2023-04-05T06:53:59.349Z,6.82
2023-04-05T06:56:26.095Z,8.00
2023-04-05T06:58:53.023Z,7.10
2023-04-05T07:01:19.902Z,8.38
2023-04-05T07:03:46.645Z,8.27
2023-04-05T07:06:13.447Z,7.55
2023-04-05T07:08:40.196Z,7.40
2023-04-05T07:11:06.903Z,7.35
2023-04-05T07:13:33.819Z,8.27
2023-04-05T07:16:01.707Z,7.68
2023-04-05T07:18:29.940Z,7.55
2023-04-05T07:21:00.188Z,7.63
2023-04-05T07:23:27.941Z,7.38
2023-04-05T07:25:55.559Z,6.90
2023-04-05T07:28:22.831Z,7.13
2023-04-05T07:30:50.032Z,7.30
2023-04-05T07:33:17.150Z,7.32
2023-04-05T07:35:44.270Z,7.82
2023-04-05T07:38:11.377Z,7.47
2023-04-05T07:40:38.494Z,6.80
2023-04-05T07:43:05.601Z,6.88
2023-04-05T07:45:32.614Z,7.53
2023-04-05T07:47:59.683Z,7.75
2023-04-05T07:50:27.552Z,7.30
2023-04-05T07:52:54.633Z,6.78
2023-04-05T07:55:21.665Z,6.18
2023-04-05T07:57:48.726Z,6.63
2023-04-05T08:00:15.932Z,6.95
2023-04-05T08:02:43.130Z,7.15
2023-04-05T08:05:10.257Z,6.75
2023-04-05T08:07:37.382Z,5.97
2023-04-05T08:10:05.203Z,6.85
2023-04-05T08:12:32.530Z,6.60
2023-04-05T08:14:59.623Z,6.85
2023-04-05T08:17:28.158Z,6.95
2023-04-05T08:19:55.986Z,7.35
2023-04-05T08:22:23.031Z,6.95
2023-04-05T08:24:50.307Z,7.10
2023-04-05T08:27:18.567Z,6.68
2023-04-05T08:29:45.728Z,7.03
2023-04-05T08:32:12.940Z,6.75
2023-04-05T08:34:40.264Z,6.32
2023-04-05T08:37:07.508Z,6.85
2023-04-05T08:39:37.426Z,6.75
2023-04-05T08:42:06.954Z,6.78
2023-04-05T08:44:37.027Z,6.13
2023-04-05T08:47:04.126Z,7.72
2023-04-05T08:49:31.187Z,6.60
2023-04-05T08:52:01.663Z,7.10
2023-04-05T08:54:28.321Z,5.63
2023-04-05T08:56:57.985Z,6.30
2023-04-05T08:59:25.475Z,6.10
2023-04-05T09:01:53.166Z,5.93
2023-04-05T09:04:24.327Z,6.03
2023-04-05T09:06:52.148Z,5.70
2023-04-05T09:09:21.290Z,6.45
2023-04-05T09:11:48.671Z,6.43
2023-04-05T09:14:16.217Z,6.25
2023-04-05T09:16:43.246Z,5.97
2023-04-05T09:19:10.669Z,5.60
2023-04-05T09:22:00.697Z,5.90
2023-04-05T09:24:34.913Z,5.88
2023-04-05T09:27:05.223Z,6.10
2023-04-05T09:29:32.241Z,6.22
2023-04-05T09:32:00.994Z,5.85
2023-04-05T09:34:28.112Z,5.22
2023-04-05T09:36:55.183Z,6.50
2023-04-05T09:39:28.364Z,5.88
2023-04-05T09:42:15.986Z,6.22
2023-04-05T09:44:52.788Z,5.60
2023-04-05T09:47:20.756Z,5.50
2023-04-05T09:49:47.768Z,5.82
2023-04-05T09:52:34.090Z,5.60
2023-04-05T09:55:02.844Z,6.18
2023-04-05T09:57:30.572Z,6.45
2023-04-05T09:59:57.620Z,5.90
2023-04-05T10:02:25.307Z,5.80
2023-04-05T10:04:52.519Z,5.75
2023-04-05T10:07:20.137Z,6.25
2023-04-05T10:09:48.285Z,5.90
2023-04-05T10:12:33.854Z,5.70
2023-04-05T10:15:00.975Z,5.13
2023-04-05T10:17:40.232Z,5.85
2023-04-05T10:20:14.908Z,5.57
2023-04-05T10:22:57.446Z,5.35
2023-04-05T10:25:36.987Z,6.32
2023-04-05T10:28:11.526Z,5.53
2023-04-05T10:30:45.058Z,5.05
2023-04-05T10:33:23.042Z,5.50
2023-04-05T10:35:56.327Z,5.80
2023-04-05T10:38:30.478Z,5.13
2023-04-05T10:41:10.547Z,6.25
2023-04-05T10:43:38.610Z,5.70
2023-04-05T10:46:06.825Z,5.38
2023-04-05T10:48:54.886Z,5.82
2023-04-05T10:51:26.221Z,5.85
2023-04-05T10:53:53.711Z,6.00
2023-04-05T10:56:22.009Z,5.45
2023-04-05T10:58:50.279Z,6.18
2023-04-05T11:01:18.844Z,5.38
2023-04-05T11:03:49.915Z,5.65
2023-04-05T11:06:31.347Z,5.80
2023-04-05T11:09:00.838Z,5.13
2023-04-05T11:11:27.899Z,5.53
2023-04-05T11:13:57.233Z,5.47
2023-04-05T11:16:38.562Z,5.93
2023-04-05T11:19:05.396Z,5.25
2023-04-05T11:21:32.121Z,5.75
2023-04-05T11:24:03.596Z,5.88
2023-04-05T11:26:48.878Z,5.85
2023-04-05T11:29:16.053Z,5.53
2023-04-05T11:31:59.870Z,5.80
2023-04-05T11:34:26.708Z,5.60
2023-04-05T11:36:53.496Z,5.65
2023-04-05T11:39:21.095Z,5.60
2023-04-05T11:42:07.416Z,5.57
2023-04-05T11:44:41.183Z,5.55
2023-04-05T11:47:09.058Z,6.22
2023-04-05T11:49:36.348Z,5.78
2023-04-05T11:52:14.347Z,5.47
2023-04-05T11:54:47.501Z,5.60
2023-04-05T11:57:18.402Z,5.88
2023-04-05T11:59:45.446Z,5.85
2023-04-05T12:02:12.836Z,5.40
2023-04-05T12:04:40.571Z,5.70
2023-04-05T12:07:19.471Z,5.68
2023-04-05T12:10:04.956Z,6.15
2023-04-05T12:12:40.741Z,5.57
2023-04-05T12:15:10.621Z,5.55
2023-04-05T12:17:40.131Z,5.82
2023-04-05T12:20:07.780Z,6.13
2023-04-05T12:22:36.071Z,5.82
2023-04-05T12:25:03.080Z,5.60
2023-04-05T12:27:30.306Z,5.63
2023-04-05T12:30:18.025Z,5.63
2023-04-05T12:32:48.764Z,5.82
2023-04-05T12:35:21.176Z,5.05
2023-04-05T12:37:50.652Z,5.95
2023-04-05T12:40:22.773Z,5.65
2023-04-05T12:42:49.919Z,5.75
2023-04-05T12:45:18.224Z,5.68
2023-04-05T12:47:58.649Z,5.82
2023-04-05T12:50:30.473Z,5.05
2023-04-05T12:53:04.852Z,5.47
2023-04-05T12:55:32.090Z,6.10
2023-04-05T12:58:03.617Z,6.60
2023-04-05T13:00:30.940Z,5.80
2023-04-05T13:02:59.387Z,6.50
2023-04-05T13:05:30.781Z,6.20
2023-04-05T13:07:58.777Z,6.28
2023-04-05T13:10:25.922Z,6.65
2023-04-05T13:12:52.679Z,6.30
2023-04-05T13:15:19.632Z,6.25
2023-04-05T13:17:49.703Z,6.40
2023-04-05T13:20:18.308Z,6.10
2023-04-05T13:22:46.216Z,6.25
2023-04-05T13:25:13.541Z,7.00
2023-04-05T13:27:40.190Z,6.03
2023-04-05T13:30:07.612Z,6.30
2023-04-05T13:32:34.583Z,6.38
2023-04-05T13:35:01.654Z,6.25
2023-04-05T13:37:28.429Z,6.25
2023-04-05T13:39:55.138Z,5.60
2023-04-05T13:42:23.320Z,5.75
2023-04-05T13:44:50.537Z,5.55
2023-04-05T13:47:17.727Z,6.30
2023-04-05T13:49:44.758Z,6.10
2023-04-05T13:52:12.217Z,5.43
2023-04-05T13:54:39.283Z,6.15
2023-04-05T13:57:06.383Z,6.30
2023-04-05T13:59:33.430Z,6.07
2023-04-05T14:02:00.951Z,5.85
2023-04-05T14:04:28.928Z,5.63
2023-04-05T14:06:56.210Z,5.38
2023-04-05T14:09:22.923Z,5.40
2023-04-05T14:11:49.717Z,5.45
2023-04-05T14:14:16.439Z,6.07
2023-04-05T14:16:43.299Z,5.15
2023-04-05T14:19:10.365Z,6.20
2023-04-05T14:21:37.248Z,5.63
2023-04-05T14:24:04.013Z,4.97
2023-04-05T14:26:31.122Z,5.28
2023-04-05T14:28:58.144Z,5.40
2023-04-05T14:31:27.736Z,5.28
2023-04-05T14:33:54.363Z,5.63
2023-04-05T14:36:21.302Z,5.45
2023-04-05T14:38:48.184Z,4.75
2023-04-05T14:41:14.960Z,5.40
2023-04-05T14:43:41.995Z,5.40
2023-04-05T14:46:08.714Z,5.35
2023-04-05T14:48:35.564Z,5.50
2023-04-05T14:51:02.457Z,4.90
2023-04-05T14:53:29.149Z,5.15
2023-04-05T14:55:55.786Z,5.10
2023-04-05T14:58:22.586Z,5.32
2023-04-05T15:00:50.656Z,4.90
2023-04-05T15:03:19.632Z,5.25
2023-04-05T15:05:47.255Z,5.25
2023-04-05T15:08:14.839Z,4.72
2023-04-05T15:10:45.087Z,4.93
2023-04-05T15:13:12.844Z,4.90
2023-04-05T15:15:39.827Z,4.90
2023-04-05T15:18:08.118Z,4.95
2023-04-05T15:20:35.692Z,5.60
2023-04-05T15:23:02.701Z,5.10
2023-04-05T15:25:29.477Z,5.00
2023-04-05T15:27:59.086Z,5.28
2023-04-05T15:30:27.738Z,5.95
2023-04-05T15:32:55.694Z,5.28
2023-04-05T15:35:22.994Z,4.88
2023-04-05T15:37:50.336Z,5.07
2023-04-05T15:40:17.121Z,5.40
2023-04-05T15:42:43.872Z,5.20
2023-04-05T15:45:11.207Z,5.50
2023-04-05T15:47:38.749Z,5.18
2023-04-05T15:50:06.431Z,5.40
2023-04-05T15:52:34.276Z,4.80
2023-04-05T15:55:01.167Z,5.00
2023-04-05T15:57:27.937Z,4.80
2023-04-05T15:59:54.811Z,5.57
2023-04-05T16:02:21.537Z,5.00
2023-04-05T16:04:48.457Z,5.00
2023-04-05T16:07:15.589Z,5.35
2023-04-05T16:09:42.313Z,4.85
2023-04-05T16:12:09.049Z,5.30
2023-04-05T16:14:35.792Z,5.20
2023-04-05T16:17:02.623Z,5.63
2023-04-05T16:19:29.386Z,5.43
2023-04-05T16:21:56.841Z,5.35
2023-04-05T16:24:23.613Z,5.25
2023-04-05T16:26:50.681Z,7.40
2023-04-05T16:29:18.061Z,7.05
2023-04-05T16:31:47.271Z,5.55
2023-04-05T16:34:14.645Z,4.47
2023-04-05T16:36:41.820Z,5.30
2023-04-05T16:39:08.850Z,5.40
2023-04-05T16:41:38.789Z,4.72
2023-04-05T16:44:06.144Z,5.15
2023-04-05T16:46:33.318Z,5.30
2023-04-05T16:49:01.071Z,6.22
2023-04-05T16:51:28.729Z,5.50
2023-04-05T16:53:56.015Z,4.97
2023-04-05T16:56:24.218Z,5.78
2023-04-05T16:58:51.841Z,6.43
2023-04-05T17:01:18.686Z,5.60
2023-04-05T17:03:47.044Z,6.18
2023-04-05T17:06:14.866Z,5.72
2023-04-05T17:08:42.007Z,5.07
2023-04-05T17:11:08.804Z,6.50
2023-04-05T17:13:35.856Z,5.75
2023-04-05T17:16:03.080Z,5.57
2023-04-05T17:18:29.720Z,5.82
2023-04-05T17:20:56.372Z,5.18
2023-04-05T17:23:24.459Z,6.47
2023-04-05T17:25:51.605Z,5.82
2023-04-05T17:28:18.653Z,5.35
2023-04-05T17:30:45.813Z,6.10
2023-04-05T17:33:12.533Z,5.45
2023-04-05T17:35:39.210Z,5.90
2023-04-05T17:38:06.323Z,5.55
2023-04-05T17:40:33.377Z,5.47
2023-04-05T17:43:00.738Z,6.25
2023-04-05T17:45:28.226Z,6.00
2023-04-05T17:47:54.945Z,5.78
2023-04-05T17:50:24.433Z,5.78
2023-04-05T17:52:51.954Z,5.55
2023-04-05T17:55:19.011Z,5.88
2023-04-05T17:57:46.073Z,6.78
2023-04-05T18:00:13.392Z,6.43
2023-04-05T18:02:41.443Z,6.65
2023-04-05T18:05:10.089Z,5.85
2023-04-05T18:07:39.015Z,6.28
2023-04-05T18:10:06.762Z,5.45
2023-04-05T18:12:34.284Z,7.38
2023-04-05T18:15:01.329Z,11.40
2023-04-05T18:17:28.566Z,7.53
2023-04-05T18:19:55.640Z,6.32
2023-04-05T18:22:22.300Z,7.40
2023-04-05T18:24:48.949Z,12.57
2023-04-05T18:27:15.582Z,12.90
2023-04-05T18:29:42.453Z,8.40
2023-04-05T18:32:09.660Z,6.30
2023-04-05T18:34:36.627Z,9.10
2023-04-05T18:37:03.300Z,12.63
2023-04-05T18:39:29.988Z,8.73
2023-04-05T18:41:56.611Z,7.15
2023-04-05T18:44:23.716Z,9.73
2023-04-05T18:46:50.414Z,8.07
2023-04-05T18:49:18.926Z,7.05
2023-04-05T18:51:46.209Z,10.10
2023-04-05T18:54:13.862Z,7.70
2023-04-05T18:56:41.156Z,8.40
2023-04-05T18:59:08.539Z,8.30
2023-04-05T19:01:36.203Z,6.88
2023-04-05T19:04:05.793Z,8.48
2023-04-05T19:06:32.770Z,8.75
2023-04-05T19:08:59.439Z,6.50
2023-04-05T19:11:26.247Z,7.32
2023-04-05T19:13:54.369Z,7.22
2023-04-05T19:16:21.152Z,6.65
2023-04-05T19:18:47.795Z,7.40
2023-04-05T19:21:14.478Z,8.77
2023-04-05T19:23:41.214Z,7.07
2023-04-05T19:26:07.846Z,8.23
2023-04-05T19:28:34.451Z,10.45
2023-04-05T19:31:01.122Z,12.90
2023-04-05T19:33:31.421Z,7.25
2023-04-05T19:35:58.788Z,10.57
2023-04-05T19:38:25.592Z,7.80
2023-04-05T19:40:52.803Z,10.88
2023-04-05T19:43:19.421Z,6.88
2023-04-05T19:45:48.437Z,6.47
2023-04-05T19:48:44.302Z,6.10
2023-04-05T19:51:14.018Z,6.60
2023-04-05T19:53:51.496Z,6.68
2023-04-05T19:56:21.766Z,7.00
2023-04-05T19:58:58.711Z,6.47
2023-04-05T20:01:36.911Z,6.93
2023-04-05T20:04:16.914Z,7.32
2023-04-05T20:06:51.261Z,7.82
2023-04-05T20:09:18.345Z,7.63
2023-04-05T20:11:51.911Z,6.75
2023-04-05T20:14:24.608Z,7.80
2023-04-05T20:16:51.316Z,7.05
2023-04-05T20:19:28.930Z,6.65
2023-04-05T20:22:01.279Z,6.75
2023-04-05T20:24:29.176Z,7.05
2023-04-05T20:26:56.826Z,6.43
2023-04-05T20:29:28.599Z,6.82
2023-04-05T20:31:55.592Z,7.10
2023-04-05T20:34:32.887Z,7.80
2023-04-05T20:37:03.161Z,7.28
2023-04-05T20:39:30.904Z,6.68
2023-04-05T20:41:58.117Z,6.93
2023-04-05T20:44:25.869Z,6.93
2023-04-05T20:46:54.604Z,6.65
2023-04-05T20:49:22.368Z,6.20
2023-04-05T20:51:50.601Z,6.50
2023-04-05T20:54:18.026Z,8.15
2023-04-05T20:56:46.485Z,7.25
2023-04-05T20:59:16.400Z,7.53
2023-04-05T21:01:51.764Z,7.43
2023-04-05T21:04:18.475Z,7.07
2023-04-05T21:06:45.622Z,6.97
2023-04-05T21:09:12.351Z,8.15
2023-04-05T21:11:38.983Z,7.80
2023-04-05T21:14:05.866Z,8.70
2023-04-05T21:16:32.899Z,8.30
2023-04-05T21:18:59.962Z,8.13
2023-04-05T21:21:27.169Z,8.88
2023-04-05T21:23:54.231Z,8.60
2023-04-05T21:26:21.322Z,7.82
2023-04-05T21:28:48.451Z,8.32
2023-04-05T21:31:15.604Z,9.48
2023-04-05T21:33:42.725Z,9.32
2023-04-05T21:36:09.893Z,7.85
2023-04-05T21:38:37.114Z,8.10
2023-04-05T21:41:03.780Z,9.30
2023-04-05T21:43:30.788Z,8.88
2023-04-05T21:45:57.469Z,8.90
2023-04-05T21:48:24.850Z,8.82
2023-04-05T21:50:51.759Z,9.18
2023-04-05T21:53:18.766Z,9.52
2023-04-05T21:55:45.616Z,9.90
2023-04-05T21:58:12.306Z,9.25
2023-04-05T22:00:38.956Z,9.40
2023-04-05T22:03:05.870Z,10.30
2023-04-05T22:05:37.867Z,10.70
2023-04-05T22:08:06.270Z,10.65
2023-04-05T22:10:33.873Z,10.77
2023-04-05T22:13:01.008Z,12.02
2023-04-05T22:15:27.688Z,10.90
2023-04-05T22:17:54.372Z,11.88
2023-04-05T22:20:21.056Z,10.82
2023-04-05T22:22:47.767Z,11.45
2023-04-05T22:25:14.445Z,10.85
2023-04-05T22:27:41.179Z,12.25
2023-04-05T22:30:08.553Z,11.20
2023-04-05T22:32:36.089Z,10.52
2023-04-05T22:35:04.238Z,10.85
2023-04-05T22:37:35.566Z,12.40
2023-04-05T22:40:03.283Z,11.25
2023-04-05T22:42:30.594Z,11.18
2023-04-05T22:44:57.689Z,11.73
2023-04-05T22:47:24.949Z,11.93
2023-04-05T22:49:52.239Z,11.40
2023-04-05T22:52:19.330Z,12.05
2023-04-05T22:54:46.449Z,11.23
2023-04-05T22:57:13.601Z,10.52
2023-04-05T22:59:40.935Z,11.00
2023-04-05T23:02:08.086Z,10.82
2023-04-05T23:04:35.527Z,10.05
2023-04-05T23:07:02.698Z,10.40
2023-04-05T23:09:29.828Z,9.73
2023-04-05T23:11:56.897Z,10.88
2023-04-05T23:14:24.010Z,10.20
2023-04-05T23:16:51.065Z,10.38
2023-04-05T23:19:18.112Z,11.20
2023-04-05T23:21:45.309Z,9.70
2023-04-05T23:24:12.520Z,9.85
2023-04-05T23:26:39.576Z,10.23
2023-04-05T23:29:06.831Z,9.88
2023-04-05T23:31:34.331Z,9.43
2023-04-05T23:34:01.417Z,9.50
2023-04-05T23:36:28.789Z,10.10
2023-04-05T23:38:58.184Z,10.27
2023-04-05T23:41:25.255Z,10.27
2023-04-05T23:43:52.266Z,9.88
2023-04-05T23:46:19.386Z,9.23
2023-04-05T23:48:46.455Z,9.60
2023-04-05T23:51:13.490Z,9.02
2023-04-05T23:53:40.804Z,10.38
2023-04-05T23:56:08.706Z,10.05
2023-04-05T23:58:36.302Z,10.02
